ADDS METAR Data INFO
IDs: Format: Raw Decoded Include TAF

Data at: 0501 UTC 23 May 2017

KJAS 230455Z AUTO 01004KT 10SM 19/19 A2990 RMK AO2 P0005 T01920185
KJAS 230435Z AUTO 01005KT 10SM 19/19 A2990 RMK AO2 P0003 T01930185
KJAS 230415Z AUTO 02003KT 10SM 19/19 A2990 RMK AO2 P0001 T01930186
KJAS 230355Z AUTO 02004KT 10SM 19/19 A2990 RMK AO2 P0006 T01930186
KJAS 230335Z AUTO 03004KT 10SM 19/19 A2991 RMK AO2 P0004 T01930186
KJAS 230315Z AUTO 36004KT 10SM OVC006 20/19 A2991 RMK AO2 P0002 T01950187
KJAS 230255Z AUTO 01004KT 10SM BKN006 BKN018 OVC031 20/19 A2991 RMK AO2 P0008 T01950189
KJAS 230235Z AUTO 01003KT 5SM BR SCT006 BKN010 OVC031 20/19 A2990 RMK AO2 P0006 T01960190
KJAS 230215Z AUTO 01006KT 7SM 20/19 A2991 RMK AO2 P0003 T01970190
KJAS 230155Z AUTO 01006KT 10SM 20/19 A2990 RMK AO2 P0010 T01990192
KJAS 230135Z AUTO 01003KT 10SM 20/19 A2990 RMK AO2 P0007 T02000194
KJAS 230115Z AUTO 35003KT 10SM 20/19 A2990 RMK AO2 P0003 T02010194
KJAS 230055Z AUTO 35003KT 7SM 20/20 A2989 RMK AO2 P0012 T02010195
KJAS 230035Z AUTO 01003KT 5SM BR 20/20 A2989 RMK AO2 P0008 T02030195
KJAS 230015Z AUTO 03003KT 3SM -DZ OVC007 20/20 A2989 RMK AO2 P0004 T02040195
KJAS 222355Z AUTO 36004KT 4SM -RA OVC007 21/20 A2990 RMK AO2 P0015 T02050195
KJAS 222335Z AUTO 36003KT 10SM OVC007 21/20 A2990 RMK AO2 P0010 T02050196
KJAS 222315Z AUTO 01005KT 10SM 21/20 A2990 RMK AO2 P0004 T02050197
KJAS 222255Z AUTO 01004KT 7SM -DZ 20/20 A2990 RMK AO2 P0018 T02040196
KJAS 222235Z AUTO 02004KT 4SM DZ 20/20 A2990 RMK AO2 P0012 T02030195
KJAS 222215Z AUTO 33004KT 7SM RA BKN005 20/19 A2991 RMK AO2 P0006 T02020194
KJAS 222155Z AUTO 00000KT 10SM RA SCT005 SCT015 SCT032 20/19 A2991 RMK AO2 P0021 T02010194
KJAS 222135Z AUTO 04006KT 7SM -RA BKN005 BKN018 OVC043 20/19 A2992 RMK AO2 P0013 T02000193
KJAS 222115Z AUTO 06008KT 3SM RA 20/19 A2992 RMK AO2 P0006 T01980191
KJAS 222055Z AUTO 04007KT 5SM +RA 20/19 A2993 RMK AO2 P0022 T02000191
KJAS 222035Z AUTO 04005KT 1 1/2SM +RA 20/19 A2994 RMK AO2 P0014 T02000191
KJAS 222015Z AUTO 04008KT 7SM +RA 20/19 A2995 RMK AO2 P0006 T02010191
KJAS 221955Z AUTO 04009KT 10SM -RA 20/19 A2996 RMK AO2 P0024 T02000191
KJAS 221935Z AUTO 04008KT 10SM RA 20/19 A2996 RMK AO2 P0016 T01970189
KJAS 221915Z AUTO 03008KT 5SM RA 20/19 A2997 RMK AO2 P0007 T01950188
KJAS 221855Z AUTO 01004KT 1 3/4SM +RA 19/19 A2999 RMK AO2 P0023 T01930185
KJAS 221835Z AUTO 35005KT 2 1/2SM +RA 19/19 A2999 RMK AO2 P0015 T01930185
KJAS 221815Z AUTO 02008KT 2 1/2SM +RA 19/19 A2999 RMK AO2 P0007 T01930186
KJAS 221755Z AUTO 32007KT 4SM +RA 20/19 A3001 RMK AO2 P0020 T01950186
KJAS 221735Z AUTO 36006KT 2SM +RA 20/19 A3000 RMK AO2 P0012 T01960189
KJAS 221715Z AUTO 04006G14KT 2 1/2SM RA 20/19 A2999 RMK AO2 P0005 T01980191
KJAS 221655Z AUTO 03008KT 2 1/2SM +RA 20/19 A3000 RMK AO2 VIS 1 3/4V4 P0014 T01980190
KJAS 221635Z AUTO 06004KT 1SM +RA 20/19 A3002 RMK AO2 P0008 T01980190
KJAS 221615Z AUTO 04004KT 2SM +RA 20/19 A3001 RMK AO2 P0003 T01990191
KJAS 221555Z AUTO 04010G15KT 2 1/2SM +RA 20/20 A2999 RMK AO2 P0010 T02010195
KJAS 221535Z AUTO 04011G14KT 4SM +RA 20/20 A3000 RMK AO2 P0006 T02030196
KJAS 221515Z AUTO 05010KT 7SM RA 20/20 A3001 RMK AO2 P0003 T02040198
KJAS 221455Z AUTO 04009KT 3SM +RA 21/20 A3002 RMK AO2 P0005 T02060200
KJAS 221435Z AUTO 03005KT 3SM RA 21/20 A3004 RMK AO2 P0003 T02070200
KJAS 221415Z AUTO 07005KT 3SM RA 21/20 A3003 RMK AO2 P0001 T02070201
KJAS 221355Z AUTO 08006KT 3SM +RA 21/20 A3003 RMK AO2 P0003 T02090202
KJAS 221335Z AUTO 08006KT 10SM RA 21/20 A3003 RMK AO2 P0002 T02100202
KJAS 221315Z AUTO 05006KT 10SM -DZ 21/20 A3003 RMK AO2 P0001 T02100203
KJAS 221255Z AUTO 05007KT 10SM RA OVC004 21/20 A3003 RMK AO2 P0004 T02100203
KJAS 221235Z AUTO 07005KT 7SM RA BKN004 BKN055 BKN095 21/20 A3003 RMK AO2 P0003 T02100203
KJAS 221215Z AUTO 07004KT 4SM RA 21/20 A3003 RMK AO2 P0001 T02090202
KJAS 221155Z AUTO 07003KT 3SM +RA 21/20 A3003 RMK AO2 P0003 T02100202
KJAS 221135Z AUTO 06005KT 10SM 21/20 A3004 RMK AO2 P0002 T02100203
KJAS 221115Z AUTO 05003KT 10SM -DZ 21/20 A3005 RMK AO2 P0001 T02100203
KJAS 221055Z AUTO 00000KT 7SM -RA 21/20 A3005 RMK AO2 P0002 T02100203
KJAS 221035Z AUTO 07003KT 7SM RA 21/20 A3004 RMK AO2 T02100203
KJAS 221015Z AUTO 05004KT 10SM -DZ 21/21 A3004 RMK AO2 T02110205
KJAS 220955Z AUTO 00000KT 10SM 21/20 A3005 RMK AO2 P0001 T02110204
KJAS 220935Z AUTO 00000KT 10SM 21/20 A3005 RMK AO2 P0001 T02110204
KJAS 220915Z AUTO 06003KT 10SM -RA 21/20 A3005 RMK AO2 P0001 T02120203
KJAS 220855Z AUTO 00000KT 10SM -RA 21/20 A3006 RMK AO2 P0003 T02130203
KJAS 220835Z AUTO 08004KT 7SM +RA 22/20 A3006 RMK AO2 T02150203
KJAS 220815Z AUTO 00000KT 10SM 21/20 A3008 RMK AO2 T02140203
KJAS 220755Z AUTO 00000KT 10SM 21/20 A3008 RMK AO2 T02130203
KJAS 220735Z AUTO 00000KT 10SM 21/20 A3008 RMK AO2 T02130204
KJAS 220715Z AUTO 00000KT 10SM 21/20 A3008 RMK AO2 T02130203
KJAS 220655Z AUTO 00000KT 10SM 22/20 A3008 RMK AO2 T02150203
KJAS 220635Z AUTO 07003KT 10SM 22/20 A3008 RMK AO2 T02150204
KJAS 220615Z AUTO 07004KT 10SM 22/20 A3008 RMK AO2 T02160204
KJAS 220555Z AUTO 10004KT 10SM 22/20 A3009 RMK AO2 T02180203
KJAS 220535Z AUTO 00000KT 10SM 22/20 A3008 RMK AO2 T02180203
KJAS 220515Z AUTO 07003KT 10SM 22/21 A3007 RMK AO2 T02200205
KJAS 220455Z AUTO 05005KT 10SM -RA 22/21 A3008 RMK AO2 P0001 T02210206
KJAS 220435Z AUTO 06005KT 10SM -RA 23/21 A3009 RMK AO2 T02250206
KJAS 220415Z AUTO 04004KT 10SM 23/21 A3011 RMK AO2 T02260207
KJAS 220355Z AUTO 03004KT 10SM 23/21 A3011 RMK AO2 T02270208
KJAS 220335Z AUTO 00000KT 10SM 23/21 A3012 RMK AO2 T02300208
KJAS 220315Z AUTO 00000KT 10SM 23/21 A3013 RMK AO2 T02300207
KJAS 220255Z AUTO 02003KT 10SM 23/21 A3011 RMK AO2 T02300210
KJAS 220235Z AUTO 00000KT 10SM 23/21 A3010 RMK AO2 T02310211
KJAS 220215Z AUTO 00000KT 10SM 23/21 A3009 RMK AO2 T02320210
KJAS 220155Z AUTO 00000KT 10SM 23/21 A3007 RMK AO2 T02320211
KJAS 220135Z AUTO 05004KT 10SM 23/21 A3005 RMK AO2 T02330213
KJAS 220115Z AUTO 07004KT 10SM 24/21 A3005 RMK AO2 T02370214
KJAS 220055Z AUTO 02003KT 10SM 24/22 A3006 RMK AO2 T02410215
KJAS 220035Z AUTO 02003KT 10SM 24/22 A3006 RMK AO2 T02430216
KJAS 220015Z AUTO 07003KT 10SM 25/22 A3005 RMK AO2 T02480219
KJAS 212355Z AUTO 06003KT 10SM 25/22 A3004 RMK AO2 T02500217
KJAS 212335Z AUTO 07004KT 10SM 25/22 A3004 RMK AO2 T02530215
KJAS 212315Z AUTO 10003KT 10SM 26/21 A3006 RMK AO2 T02560214
KJAS 212255Z AUTO 06003KT 10SM CLR 26/21 A3006 RMK AO2 T02550212
KJAS 212235Z AUTO 04003KT 10SM CLR 25/22 A3004 RMK AO2 T02500215
KJAS 212215Z AUTO 02006KT 10SM CLR 24/22 A3003 RMK AO2 T02430217
KJAS 212155Z AUTO 01006KT 10SM SCT080 SCT120 23/21 A3005 RMK AO2 P0001 T02320214
KJAS 212135Z AUTO 03005KT 7SM -RA SCT029 SCT038 BKN050 23/21 A3007 RMK AO2 P0001 T02260211
KJAS 212115Z AUTO 04007KT 7SM -RA 23/21 A3008 RMK AO2 T02260210
KJAS 212055Z AUTO 05006KT 7SM -RA 23/21 A3009 RMK AO2 T02290205
KJAS 212035Z AUTO 08007KT 040V100 10SM 23/20 A3011 RMK AO2 T02320202
KJAS 212015Z AUTO 10008KT 10SM 24/20 A3011 RMK AO2 T02380202
KJAS 211955Z AUTO 04009G15KT 10SM OVC014 24/20 A3011 RMK AO2 T02420203
KJAS 211935Z AUTO 01011G17KT 10SM OVC012 24/21 A3010 RMK AO2 T02410205
KJAS 211915Z AUTO 01009G15KT 7SM 23/21 A3009 RMK AO2 T02330206
KJAS 211855Z AUTO 36011G18KT 5SM BR 23/21 A3010 RMK AO2 T02330210
KJAS 211835Z AUTO 36009G21KT 5SM BR 25/22 A3009 RMK AO2 T02450218
KJAS 211815Z AUTO 34016G20KT 7SM 27/23 A3008 RMK AO2 T02660230
KJAS 211755Z AUTO 36009G18KT 10SM 27/23 A3007 RMK AO2 T02730233
KJAS 211735Z AUTO 33010KT 10SM 27/23 A3008 RMK AO2 T02700234
KJAS 211715Z AUTO 34008KT 10SM 27/23 A3009 RMK AO2 T02680232


Page loaded:  05:01 UTC  |   10:01 PM Pacific  |   11:01 PM Mountain  |   12:01 AM Central  |   01:01 AM Eastern

 

ADVISORIES

FORECASTS

FORECASTS

OBSERVATIONS

USER TOOLS

ABOUT US